Time;durP1;ratioP1;P1;durP2;ratioP2;P2;SDS_P1;SDS_P2;PMS_P1;PMS_P2;Temp;Humidity;BMP_temperature;BMP_pressure;BME280_temperature;BME280_humidity;BME280_pressure;Samples;Min_cycle;Max_cycle;Signal;HPM_P1;HPM_P2
2022/08/16 00:00:14;;;;;;;4.25;3.62;;;;;;;27.42;48.27;99974.95;1745335;81;21056;-82
2022/08/16 00:02:40;;;;;;;5.50;3.62;;;;;;;27.43;48.27;99970.16;1766401;80;21072;-82
2022/08/16 00:05:09;;;;;;;5.47;3.98;;;;;;;27.43;48.27;99977.15;1766529;80;22054;-81
2022/08/16 00:07:35;;;;;;;4.45;3.58;;;;;;;27.42;48.26;99973.55;1766540;81;21028;-82
2022/08/16 00:10:03;;;;;;;5.05;3.77;;;;;;;27.43;48.27;99972.96;1817393;77;20962;-82
2022/08/16 00:12:29;;;;;;;4.42;3.90;;;;;;;27.42;48.29;99972.16;1830745;78;21033;-82
2022/08/16 00:14:57;;;;;;;4.08;3.40;;;;;;;27.43;48.30;99975.75;1808195;78;21025;-82
2022/08/16 00:17:24;;;;;;;6.15;4.10;;;;;;;27.43;48.29;99979.36;1807523;78;22025;-81
2022/08/16 00:19:52;;;;;;;4.97;3.90;;;;;;;27.42;48.30;99986.13;1830744;78;21437;-82
2022/08/16 00:22:19;;;;;;;6.10;3.90;;;;;;;27.42;48.28;99982.52;1830891;78;21033;-82
2022/08/16 00:24:45;;;;;;;4.12;3.40;;;;;;;27.43;48.31;99986.93;1830576;77;21463;-82
2022/08/16 00:27:11;;;;;;;4.83;3.72;;;;;;;27.43;48.30;99989.72;1830429;77;21001;-82
2022/08/16 00:29:37;;;;;;;5.58;3.75;;;;;;;27.42;48.30;99992.30;1830843;77;21272;-82
2022/08/16 00:32:04;;;;;;;5.22;3.87;;;;;;;27.42;48.30;99988.11;1830454;77;21598;-82
2022/08/16 00:34:31;;;;;;;6.10;4.05;;;;;;;27.43;48.31;99991.12;1830847;77;21033;-82
2022/08/16 00:36:57;;;;;;;4.45;3.77;;;;;;;27.42;48.31;99981.13;1830653;77;20957;-81
2022/08/16 00:39:24;;;;;;;5.05;3.80;;;;;;;27.42;48.31;99979.73;1830442;77;21009;-82
2022/08/16 00:41:50;;;;;;;5.08;3.87;;;;;;;27.42;48.32;99982.52;1830948;78;21104;-82
2022/08/16 00:44:19;;;;;;;4.35;3.62;;;;;;;27.42;48.33;99983.92;1830177;78;21029;-82
2022/08/16 00:47:07;;;;;;;5.17;4.00;;;;;;;27.41;48.34;99980.34;1835815;77;21103;-82
2022/08/16 00:49:34;;;;;;;5.20;3.55;;;;;;;27.42;48.33;99983.92;1842219;77;21464;-82
2022/08/16 00:52:00;;;;;;;4.97;3.65;;;;;;;27.41;48.33;99980.94;1841968;77;21068;-82
2022/08/16 00:54:28;;;;;;;5.58;3.58;;;;;;;27.41;48.34;99980.94;1842233;77;21250;-82
2022/08/16 00:56:56;;;;;;;3.87;3.40;;;;;;;27.41;48.34;99978.14;1842095;77;21083;-82
2022/08/16 00:59:24;;;;;;;5.87;3.83;;;;;;;27.41;48.34;99979.54;1841845;77;21012;-82
2022/08/16 01:01:51;;;;;;;7.72;3.62;;;;;;;27.40;48.36;99975.13;1842144;77;21102;-82
2022/08/16 01:04:21;;;;;;;4.95;3.72;;;;;;;27.40;48.36;99977.92;1841915;77;21472;-82
2022/08/16 01:06:48;;;;;;;5.03;3.77;;;;;;;27.40;48.36;99975.13;1842034;77;21176;-82
2022/08/16 01:09:15;;;;;;;4.70;3.27;;;;;;;27.39;48.36;99978.52;1842124;77;21613;-82
2022/08/16 01:11:41;;;;;;;4.80;3.70;;;;;;;27.38;48.36;99978.30;1842265;77;21000;-82
2022/08/16 01:14:16;;;;;;;4.78;3.85;;;;;;;27.39;48.38;99981.31;1841936;77;21028;-82
2022/08/16 01:16:42;;;;;;;6.90;4.17;;;;;;;27.39;48.38;99982.70;1842305;77;21080;-82
2022/08/16 01:19:43;;;;;;;5.12;3.60;;;;;;;27.39;48.39;99980.50;1809765;77;21286;-82
2022/08/16 01:22:34;;;;;;;4.95;3.67;;;;;;;27.39;48.38;99984.10;1821726;77;21026;-82
2022/08/16 01:25:05;;;;;;;5.15;3.47;;;;;;;27.39;48.40;99979.11;1809205;78;21050;-81
2022/08/16 01:27:40;;;;;;;4.83;3.92;;;;;;;27.38;48.36;99984.47;1806281;79;21031;-81
2022/08/16 01:30:13;;;;;;;5.00;3.85;;;;;;;27.38;48.40;99991.46;1803446;79;20919;-82
2022/08/16 01:32:41;;;;;;;5.50;3.83;;;;;;;27.38;48.40;99987.27;1803100;79;21984;-82
2022/08/16 01:35:13;;;;;;;4.55;3.60;;;;;;;27.38;48.40;99984.47;1803331;79;21568;-82
2022/08/16 01:37:42;;;;;;;4.35;3.95;;;;;;;27.37;48.41;99977.30;1801993;79;21051;-82
2022/08/16 01:40:10;;;;;;;5.00;4.12;;;;;;;27.37;48.42;99969.70;1803469;79;21078;-82
2022/08/16 01:42:36;;;;;;;5.15;3.70;;;;;;;27.36;48.40;99972.31;1803313;78;21086;-82
2022/08/16 01:45:04;;;;;;;4.42;3.60;;;;;;;27.36;48.43;99965.33;1803421;79;21225;-82
2022/08/16 01:47:31;;;;;;;5.87;4.15;;;;;;;27.36;48.43;99966.72;1803145;79;20966;-82
2022/08/16 01:49:57;;;;;;;4.78;3.67;;;;;;;27.37;48.44;99971.72;1803906;79;21070;-82
2022/08/16 01:52:23;;;;;;;5.92;3.62;;;;;;;27.36;48.44;99968.12;1803650;79;21034;-82
2022/08/16 01:54:50;;;;;;;4.37;3.52;;;;;;;27.37;48.46;99969.70;1803620;78;21085;-82
2022/08/16 01:57:16;;;;;;;4.75;3.42;;;;;;;27.37;48.46;99971.09;1803787;78;21117;-82
2022/08/16 01:59:43;;;;;;;3.87;3.45;;;;;;;27.37;48.46;99966.13;1832781;78;21017;-82
2022/08/16 02:02:09;;;;;;;4.67;3.75;;;;;;;27.37;48.47;99964.73;1839491;78;21028;-82
2022/08/16 02:04:36;;;;;;;5.35;3.37;;;;;;;27.37;48.46;99963.34;1836453;78;21432;-82
2022/08/16 02:07:07;;;;;;;5.80;4.12;;;;;;;27.37;48.47;99967.53;1830707;78;21028;-81
2022/08/16 02:09:31;;;;;;;5.10;3.92;;;;;;;27.37;48.47;99970.33;1830054;78;21760;-81
2022/08/16 02:11:58;;;;;;;5.20;3.27;;;;;;;27.37;48.47;99964.11;1830724;78;21002;-82
2022/08/16 02:14:27;;;;;;;5.58;3.80;;;;;;;27.36;48.47;99963.13;1830882;78;21064;-82
2022/08/16 02:16:56;;;;;;;4.55;3.95;;;;;;;27.37;48.47;99963.34;1830840;78;21530;-82
2022/08/16 02:19:23;;;;;;;4.65;3.90;;;;;;;27.36;48.47;99965.33;1830948;77;21016;-81
2022/08/16 02:21:52;;;;;;;5.47;3.80;;;;;;;27.36;48.47;99965.92;1830966;78;21100;-82
2022/08/16 02:24:18;;;;;;;3.90;3.15;;;;;;;27.36;48.48;99970.11;1830455;78;21057;-82
2022/08/16 02:26:45;;;;;;;3.90;3.37;;;;;;;27.36;48.48;99969.52;1830732;78;20989;-82
2022/08/16 02:29:11;;;;;;;5.08;3.80;;;;;;;27.36;48.49;99973.70;1830973;77;21009;-81
2022/08/16 02:31:38;;;;;;;5.65;3.83;;;;;;;27.36;48.48;99964.52;1831157;78;22513;-82
2022/08/16 02:34:05;;;;;;;4.08;3.65;;;;;;;27.35;48.50;99965.11;1830930;78;21039;-82
2022/08/16 02:36:31;;;;;;;3.67;3.27;;;;;;;27.36;48.49;99968.71;1831337;78;21025;-82
2022/08/16 02:38:57;;;;;;;5.70;3.35;;;;;;;27.35;48.50;99960.92;1830812;77;21084;-81
2022/08/16 02:41:24;;;;;;;4.95;3.62;;;;;;;27.35;48.50;99965.11;1831355;78;21060;-81
2022/08/16 02:43:50;;;;;;;4.55;3.47;;;;;;;27.36;48.51;99971.50;1831408;77;21076;-81
2022/08/16 02:46:17;;;;;;;5.00;3.75;;;;;;;27.36;48.50;99972.90;1831296;78;21037;-82
2022/08/16 02:48:43;;;;;;;4.30;3.90;;;;;;;27.36;48.50;99973.70;1831316;78;21579;-81
2022/08/16 02:51:10;;;;;;;3.52;3.22;;;;;;;27.35;48.50;99969.89;1831553;77;21036;-81
2022/08/16 02:53:44;;;;;;;4.12;3.52;;;;;;;27.35;48.54;99979.08;1830886;78;20978;-81
2022/08/16 02:56:12;;;;;;;4.40;3.27;;;;;;;27.35;48.51;99973.48;1830953;78;21508;-82
2022/08/16 02:58:40;;;;;;;5.60;4.00;;;;;;;27.35;48.53;99971.28;1830754;78;21163;-82
2022/08/16 03:01:08;;;;;;;5.35;3.67;;;;;;;27.34;48.53;99980.25;1830856;78;21076;-81
2022/08/16 03:03:35;;;;;;;5.10;3.70;;;;;;;27.35;48.53;99984.66;1830798;78;21088;-82
2022/08/16 03:06:02;;;;;;;3.75;3.35;;;;;;;27.34;48.54;99976.66;1830302;78;21056;-82
2022/08/16 03:08:29;;;;;;;5.72;3.65;;;;;;;27.34;48.53;99977.46;1830723;77;20993;-81
2022/08/16 03:10:55;;;;;;;4.40;3.50;;;;;;;27.34;48.52;99976.66;1830494;78;21117;-82
2022/08/16 03:13:22;;;;;;;4.12;3.42;;;;;;;27.34;48.54;99986.43;1830284;78;21064;-81
2022/08/16 03:15:54;;;;;;;5.03;3.65;;;;;;;27.35;48.54;99990.84;1830511;78;21014;-82
2022/08/16 03:18:21;;;;;;;3.72;3.27;;;;;;;27.35;48.54;99992.23;1830572;78;20982;-82
2022/08/16 03:20:48;;;;;;;5.25;3.55;;;;;;;27.35;48.54;99990.84;1830520;78;21017;-82
2022/08/16 03:23:14;;;;;;;5.22;3.87;;;;;;;27.34;48.55;99988.63;1830791;78;20945;-82
2022/08/16 03:25:41;;;;;;;4.87;3.65;;;;;;;27.34;48.55;99986.43;1830547;78;21251;-81
2022/08/16 03:28:07;;;;;;;5.12;3.92;;;;;;;27.33;48.55;99985.63;1830644;77;21014;-82
2022/08/16 03:30:40;;;;;;;5.47;3.95;;;;;;;27.34;48.56;99983.64;1830663;78;21618;-82
2022/08/16 03:33:06;;;;;;;5.12;3.50;;;;;;;27.34;48.56;99983.64;1807862;78;20933;-82
2022/08/16 03:35:35;;;;;;;4.20;3.27;;;;;;;27.33;48.55;99983.45;1830566;78;21157;-82
2022/08/16 03:38:03;;;;;;;4.67;3.33;;;;;;;27.33;48.57;99986.24;1830818;78;21027;-82
2022/08/16 03:40:32;;;;;;;4.35;3.47;;;;;;;27.34;48.57;99985.03;1830612;77;21393;-82
2022/08/16 03:42:58;;;;;;;4.22;3.58;;;;;;;27.32;48.57;99984.04;1830501;77;21068;-82
2022/08/16 03:45:25;;;;;;;5.03;3.37;;;;;;;27.33;48.58;99988.42;1830762;78;20997;-81
2022/08/16 03:47:51;;;;;;;4.10;3.30;;;;;;;27.33;48.57;99998.81;1801943;77;21056;-81
2022/08/16 03:50:18;;;;;;;4.55;3.40;;;;;;;27.32;48.59;99998.00;1778315;80;21056;-81
2022/08/16 03:52:44;;;;;;;6.08;3.47;;;;;;;27.33;48.57;100000.20;1778640;80;21056;-82
2022/08/16 03:55:11;;;;;;;4.58;3.30;;;;;;;27.32;48.59;100009.18;1778648;79;20976;-82
2022/08/16 03:57:37;;;;;;;6.20;3.60;;;;;;;27.32;48.61;100002.78;1778420;80;21076;-81
2022/08/16 04:00:14;;;;;;;5.08;3.52;;;;;;;27.33;48.59;99997.41;1778737;80;21538;-81
2022/08/16 04:02:42;;;;;;;4.08;3.40;;;;;;;27.33;48.61;100000.20;1778353;80;21023;-82
2022/08/16 04:05:09;;;;;;;4.90;3.37;;;;;;;27.33;48.61;100001.61;1778577;79;21490;-82
2022/08/16 04:07:35;;;;;;;4.85;3.70;;;;;;;27.32;48.61;100002.20;1778705;79;21044;-82
2022/08/16 04:10:05;;;;;;;4.30;3.40;;;;;;;27.32;48.59;99993.01;1778480;80;20996;-81
2022/08/16 04:12:31;;;;;;;4.22;3.42;;;;;;;27.31;48.60;99993.59;1778604;80;21034;-82
2022/08/16 04:14:58;;;;;;;5.00;3.77;;;;;;;27.32;48.62;99993.01;1778660;80;20970;-82
2022/08/16 04:17:24;;;;;;;5.80;3.65;;;;;;;27.32;48.62;99996.61;1778589;80;21068;-82
2022/08/16 04:19:51;;;;;;;6.05;3.72;;;;;;;27.34;48.63;99999.00;1778639;80;21451;-82
2022/08/16 04:22:18;;;;;;;3.62;3.20;;;;;;;27.32;48.62;99987.42;1778663;80;21048;-82
2022/08/16 04:24:45;;;;;;;5.05;3.50;;;;;;;27.33;48.62;99989.04;1778277;80;21159;-82
2022/08/16 04:27:12;;;;;;;4.30;3.58;;;;;;;27.33;48.63;99986.24;1778663;80;20977;-82
2022/08/16 04:29:38;;;;;;;4.35;3.42;;;;;;;27.32;48.62;99989.62;1778625;80;21035;-82
2022/08/16 04:32:05;;;;;;;4.70;3.25;;;;;;;27.34;48.63;99989.22;1778188;80;21047;-82
2022/08/16 04:34:33;;;;;;;4.50;3.50;;;;;;;27.33;48.62;99983.45;1778666;79;21023;-82
2022/08/16 04:37:00;;;;;;;4.33;3.30;;;;;;;27.34;48.62;99990.62;1746414;80;21391;-82
2022/08/16 04:39:27;;;;;;;4.37;3.17;;;;;;;27.33;48.62;99992.61;1778384;79;20965;-81
2022/08/16 04:41:54;;;;;;;4.40;3.72;;;;;;;27.33;48.62;99993.23;1778626;79;21566;-82
2022/08/16 04:44:20;;;;;;;3.90;3.50;;;;;;;27.33;48.63;99994.00;1778302;80;20999;-82
2022/08/16 04:46:46;;;;;;;4.65;3.35;;;;;;;27.33;48.63;99996.80;1778346;80;21068;-82
2022/08/16 04:49:13;;;;;;;4.72;3.55;;;;;;;27.32;48.64;99995.80;1808780;77;21086;-82
2022/08/16 04:51:44;;;;;;;6.75;3.60;;;;;;;27.34;48.63;99999.00;1842125;77;20989;-82
2022/08/16 04:54:08;;;;;;;4.67;4.17;;;;;;;27.33;48.64;99997.41;1840954;77;21059;-83
2022/08/16 04:56:35;;;;;;;6.65;5.22;;;;;;;27.33;48.67;99998.19;1841952;77;21515;-83
2022/08/16 04:59:01;;;;;;;9.95;6.12;;;;;;;27.31;48.75;100001.17;1842007;77;21511;-84
2022/08/16 05:01:28;;;;;;;10.65;7.03;;;;;;;27.26;48.86;99995.33;1841939;77;21093;-83
2022/08/16 05:03:54;;;;;;;5.25;4.33;;;;;;;27.19;49.07;99998.86;1842273;77;20998;-83
2022/08/16 05:06:20;;;;;;;8.90;6.53;;;;;;;27.15;49.19;99995.23;1842453;77;20988;-83
2022/08/16 05:08:47;;;;;;;13.75;7.55;;;;;;;27.11;49.32;99991.59;1842010;77;20990;-83
2022/08/16 05:11:13;;;;;;;9.95;6.05;;;;;;;27.10;49.42;99999.75;1842451;77;21025;-82
2022/08/16 05:13:42;;;;;;;8.18;6.20;;;;;;;27.06;49.54;99998.91;1842313;77;20886;-83
2022/08/16 05:16:19;;;;;;;9.83;5.70;;;;;;;27.04;49.64;99994.28;1842047;77;21048;-83
2022/08/16 05:18:46;;;;;;;11.20;6.50;;;;;;;27.03;49.73;99989.09;1836411;77;21084;-83
2022/08/16 05:21:12;;;;;;;6.72;5.78;;;;;;;27.00;49.79;99987.85;1841994;77;21009;-83
2022/08/16 05:23:39;;;;;;;8.30;5.85;;;;;;;26.99;49.84;99985.46;1842164;77;21056;-83
2022/08/16 05:26:05;;;;;;;11.88;6.83;;;;;;;26.98;49.92;99983.26;1842207;77;22155;-83
2022/08/16 05:28:37;;;;;;;11.65;7.60;;;;;;;26.95;50.05;99988.19;1841854;77;21579;-83
2022/08/16 05:31:04;;;;;;;11.20;6.90;;;;;;;26.92;50.14;99987.56;1842208;77;21083;-83
2022/08/16 05:33:30;;;;;;;7.97;5.95;;;;;;;26.92;50.20;99987.56;1842410;77;20961;-83
2022/08/16 05:35:57;;;;;;;10.70;6.45;;;;;;;26.92;50.23;99990.94;1841885;77;21047;-83
2022/08/16 05:38:26;;;;;;;8.78;5.85;;;;;;;26.93;50.22;99990.57;1841892;77;21275;-83
2022/08/16 05:40:53;;;;;;;7.87;6.35;;;;;;;26.93;50.27;99991.16;1841195;77;21518;-83
2022/08/16 05:43:20;;;;;;;7.42;5.72;;;;;;;26.91;50.35;99985.14;1840208;77;21013;-83
2022/08/16 05:45:46;;;;;;;11.83;6.87;;;;;;;26.90;50.38;99988.55;1841771;77;22201;-83
2022/08/16 05:48:13;;;;;;;9.43;5.83;;;;;;;26.90;50.44;99994.13;1841724;77;21002;-83
2022/08/16 05:50:40;;;;;;;12.00;7.87;;;;;;;26.88;50.48;99995.09;1841372;77;21828;-83
2022/08/16 05:53:06;;;;;;;12.25;8.10;;;;;;;26.86;50.60;99997.47;1813347;77;21092;-82
2022/08/16 05:55:33;;;;;;;10.50;6.87;;;;;;;26.85;50.77;100001.44;1802113;78;21072;-82
2022/08/16 05:57:59;;;;;;;11.22;6.42;;;;;;;26.84;50.79;99998.39;1807576;79;21511;-82
2022/08/16 06:00:26;;;;;;;7.75;5.65;;;;;;;26.86;50.79;99998.05;1808921;79;21008;-82
2022/08/16 06:02:52;;;;;;;10.53;6.20;;;;;;;26.85;50.84;99992.25;1806038;79;21451;-83
2022/08/16 06:05:19;;;;;;;12.63;7.03;;;;;;;26.84;50.90;99991.41;1805911;79;20994;-82
2022/08/16 06:07:45;;;;;;;9.05;6.35;;;;;;;26.83;50.91;99998.98;1795818;79;20989;-82
2022/08/16 06:10:18;;;;;;;10.65;6.58;;;;;;;26.85;50.96;100004.81;1795597;78;21111;-82
2022/08/16 06:12:45;;;;;;;8.18;6.37;;;;;;;26.83;51.00;100005.16;1805653;78;21052;-82
2022/08/16 06:15:15;;;;;;;11.05;7.53;;;;;;;26.82;51.05;100004.34;1797383;78;21052;-83
2022/08/16 06:17:42;;;;;;;11.33;7.20;;;;;;;26.83;51.08;100003.76;1761061;80;22304;-82
2022/08/16 06:20:09;;;;;;;11.12;7.62;;;;;;;26.82;51.14;100000.16;1779272;79;21038;-82
2022/08/16 06:22:37;;;;;;;10.32;7.35;;;;;;;26.82;51.18;99989.58;1794546;79;21505;-83
2022/08/16 06:25:05;;;;;;;9.88;6.90;;;;;;;26.81;51.23;99990.20;1795292;78;21053;-83
2022/08/16 06:27:31;;;;;;;7.95;6.10;;;;;;;26.80;51.29;99991.38;1794675;78;21309;-83
2022/08/16 06:29:58;;;;;;;9.48;6.45;;;;;;;26.81;51.34;99997.77;1796511;79;21116;-83
2022/08/16 06:32:24;;;;;;;8.00;6.22;;;;;;;26.82;51.36;99998.77;1801076;78;21296;-83
2022/08/16 06:34:51;;;;;;;8.93;6.20;;;;;;;26.83;51.32;99997.59;1800921;79;21311;-84
2022/08/16 06:37:17;;;;;;;13.05;7.15;;;;;;;26.85;51.31;99998.64;1801251;78;21583;-83
2022/08/16 06:39:43;;;;;;;9.08;7.10;;;;;;;26.88;51.33;100002.06;1801221;78;20937;-83
2022/08/16 06:42:10;;;;;;;10.13;6.55;;;;;;;26.89;51.30;100007.86;1800671;79;21064;-83
2022/08/16 06:44:36;;;;;;;10.53;6.10;;;;;;;26.90;51.33;100012.86;1760171;81;21343;-83
2022/08/16 06:47:03;;;;;;;8.25;6.70;;;;;;;26.90;51.28;100012.27;1747844;81;21083;-83
2022/08/16 06:49:29;;;;;;;8.98;6.08;;;;;;;26.92;51.25;100011.88;1739774;81;21036;-83
2022/08/16 06:51:56;;;;;;;8.20;5.80;;;;;;;26.96;51.19;100019.70;1754689;81;21228;-83
2022/08/16 06:54:22;;;;;;;8.00;6.03;;;;;;;26.97;51.10;100015.73;1758546;80;20993;-83
2022/08/16 06:56:49;;;;;;;9.75;5.62;;;;;;;26.97;51.10;100020.73;1758468;81;21085;-83
2022/08/16 06:59:15;;;;;;;10.08;5.55;;;;;;;26.99;51.08;100018.96;1758414;81;21486;-83
2022/08/16 07:01:42;;;;;;;9.75;5.40;;;;;;;26.97;51.08;100020.73;1764476;81;21087;-83
2022/08/16 07:04:08;;;;;;;6.15;5.45;;;;;;;26.99;51.00;100022.53;1768570;81;21088;-83
2022/08/16 07:06:40;;;;;;;7.15;5.55;;;;;;;27.00;50.93;100025.55;1746981;81;21457;-83
2022/08/16 07:09:07;;;;;;;7.33;6.03;;;;;;;27.02;50.85;100025.17;1768750;81;21036;-83
2022/08/16 07:11:34;;;;;;;8.18;5.58;;;;;;;27.02;50.81;100010.63;1768600;81;21021;-83
2022/08/16 07:14:00;;;;;;;7.28;5.67;;;;;;;27.03;50.80;100015.62;1768711;80;21088;-83
2022/08/16 07:16:26;;;;;;;6.65;5.28;;;;;;;27.04;50.77;100018.02;1768879;80;21282;-83
2022/08/16 07:18:53;;;;;;;6.28;4.83;;;;;;;27.06;50.68;100023.23;1768435;81;20965;-83
2022/08/16 07:21:19;;;;;;;7.12;5.40;;;;;;;27.07;50.61;100013.09;1764749;80;21198;-84
2022/08/16 07:23:45;;;;;;;6.80;5.53;;;;;;;27.08;50.54;100016.06;1741112;80;21099;-84
2022/08/16 07:26:28;;;;;;;8.00;5.15;;;;;;;27.09;50.49;100021.88;1755493;80;21025;-84
2022/08/16 07:28:55;;;;;;;7.35;5.15;;;;;;;27.09;50.40;100028.84;1733201;80;21084;-84
2022/08/16 07:31:21;;;;;;;7.22;5.42;;;;;;;27.09;50.36;100021.06;1739467;82;21111;-84
2022/08/16 07:33:48;;;;;;;7.20;4.83;;;;;;;27.09;50.29;100015.48;1737296;81;21098;-84
2022/08/16 07:36:14;;;;;;;8.23;5.15;;;;;;;27.10;50.24;100019.30;1714412;81;21056;-84
2022/08/16 07:38:41;;;;;;;5.85;5.03;;;;;;;27.11;50.19;100016.72;1739071;81;21476;-84
2022/08/16 07:41:07;;;;;;;10.28;5.85;;;;;;;27.10;50.12;100013.71;1721687;82;21682;-85
2022/08/16 07:43:34;;;;;;;10.18;5.37;;;;;;;27.10;50.09;100019.30;1711340;83;21077;-84
2022/08/16 07:46:00;;;;;;;7.28;4.67;;;;;;;27.09;50.02;100018.27;1711803;83;21086;-85
2022/08/16 07:48:27;;;;;;;7.60;5.35;;;;;;;27.10;49.99;100014.30;1710827;83;21097;-85
2022/08/16 07:50:53;;;;;;;7.12;5.92;;;;;;;27.09;50.00;100018.27;1743932;80;21626;-85
2022/08/16 07:53:20;;;;;;;9.58;5.62;;;;;;;27.09;49.99;100017.68;1743309;80;21578;-85
2022/08/16 07:55:47;;;;;;;8.33;5.08;;;;;;;27.08;50.00;100020.25;1743772;80;21047;-85
2022/08/16 07:58:19;;;;;;;7.70;5.60;;;;;;;27.09;49.99;100016.28;1762914;80;21029;-85
2022/08/16 08:00:46;;;;;;;6.78;4.42;;;;;;;27.11;49.97;100010.33;1760792;80;21490;-84
2022/08/16 08:03:13;;;;;;;6.30;4.78;;;;;;;27.14;49.97;100015.14;1759685;80;21098;-85
2022/08/16 08:05:39;;;;;;;7.05;5.83;;;;;;;27.15;49.94;100017.57;1760382;81;21076;-84
2022/08/16 08:08:06;;;;;;;9.55;5.65;;;;;;;27.15;49.88;99999.41;1754952;80;21894;-84
2022/08/16 08:10:32;;;;;;;7.97;5.83;;;;;;;27.19;49.85;100016.20;1747760;79;21037;-84
2022/08/16 08:13:05;;;;;;;7.95;5.70;;;;;;;27.19;49.83;100019.80;1753768;80;21034;-84
2022/08/16 08:15:31;;;;;;;8.98;5.80;;;;;;;27.21;49.75;100018.82;1765000;79;21076;-84
2022/08/16 08:18:01;;;;;;;10.25;5.90;;;;;;;27.22;49.70;100021.02;1731135;80;21135;-86
2022/08/16 08:20:26;;;;;;;5.95;5.15;;;;;;;27.22;49.67;100018.23;1756295;81;20983;-86
2022/08/16 08:22:53;;;;;;;7.83;5.83;;;;;;;27.22;49.67;100017.64;1760413;81;21062;-85
2022/08/16 08:25:20;;;;;;;7.80;5.75;;;;;;;27.23;49.60;100013.67;1764035;80;21029;-86
2022/08/16 08:27:46;;;;;;;8.60;6.42;;;;;;;27.24;49.54;100014.48;1763748;80;21089;-86
2022/08/16 08:30:13;;;;;;;7.75;5.50;;;;;;;27.25;49.49;100014.08;1742035;79;21097;-85
2022/08/16 08:32:40;;;;;;;8.10;5.58;;;;;;;27.25;49.47;100011.88;1748520;80;21557;-85
2022/08/16 08:35:07;;;;;;;11.18;6.20;;;;;;;27.28;49.44;100020.09;1707336;84;21265;-85
2022/08/16 08:37:34;;;;;;;12.45;5.60;;;;;;;27.29;49.38;100018.30;1725065;81;21131;-85
2022/08/16 08:40:02;;;;;;;7.30;5.37;;;;;;;27.29;49.33;100019.70;1763715;79;21031;-85
2022/08/16 08:42:28;;;;;;;8.45;5.83;;;;;;;27.31;49.26;100013.15;1782045;78;21111;-86
2022/08/16 08:44:55;;;;;;;9.30;6.17;;;;;;;27.32;49.20;100011.16;1779743;78;21005;-85
2022/08/16 08:47:21;;;;;;;10.23;6.45;;;;;;;27.32;49.14;100014.77;1782781;78;21091;-86
2022/08/16 08:49:55;;;;;;;8.53;5.55;;;;;;;27.35;49.08;100014.58;1801974;77;21371;-86
2022/08/16 08:52:21;;;;;;;8.63;5.37;;;;;;;27.34;49.05;100002.59;1801218;79;21072;-84
2022/08/16 08:54:48;;;;;;;8.40;6.30;;;;;;;27.36;49.04;99999.44;1785264;78;21078;-84
2022/08/16 08:57:15;;;;;;;8.23;5.65;;;;;;;27.36;49.04;99993.26;1799267;78;21049;-85
2022/08/16 08:59:43;;;;;;;7.92;6.20;;;;;;;27.38;48.99;99996.45;1776203;79;21682;-83
2022/08/16 09:02:10;;;;;;;7.17;6.05;;;;;;;27.40;48.97;99994.69;1780954;79;21102;-84
2022/08/16 09:04:36;;;;;;;7.80;6.20;;;;;;;27.40;48.91;99994.69;1799342;78;21138;-84
2022/08/16 09:07:03;;;;;;;9.05;6.22;;;;;;;27.40;48.82;99987.70;1824116;78;21085;-84
2022/08/16 09:09:30;;;;;;;11.53;6.28;;;;;;;27.42;48.79;99996.48;1796210;79;21044;-84
2022/08/16 09:11:56;;;;;;;10.48;6.35;;;;;;;27.42;48.75;99993.70;1794674;79;21052;-84
2022/08/16 09:14:23;;;;;;;9.93;6.15;;;;;;;27.43;48.68;99983.55;1776138;79;21599;-84
2022/08/16 09:16:50;;;;;;;9.20;6.33;;;;;;;27.45;48.64;99983.98;1773389;78;21310;-84
2022/08/16 09:19:23;;;;;;;7.53;6.03;;;;;;;27.48;48.59;99986.62;1793421;78;21083;-84
2022/08/16 09:21:49;;;;;;;6.60;5.83;;;;;;;27.50;48.55;99987.02;1788759;78;21646;-82
2022/08/16 09:24:17;;;;;;;9.30;6.30;;;;;;;27.50;48.51;99985.63;1779504;78;21041;-82
2022/08/16 09:26:43;;;;;;;8.13;6.25;;;;;;;27.53;48.46;99988.48;1787017;79;21288;-81
2022/08/16 09:29:10;;;;;;;8.13;5.72;;;;;;;27.51;48.41;99984.44;1771507;79;21096;-81
2022/08/16 09:31:42;;;;;;;7.92;6.28;;;;;;;27.53;48.42;99989.06;1724083;83;21563;-82
2022/08/16 09:34:08;;;;;;;10.18;6.55;;;;;;;27.53;48.42;99992.67;1731597;82;21068;-81
2022/08/16 09:36:35;;;;;;;9.43;6.70;;;;;;;27.54;48.39;99995.65;1719900;81;21638;-82
2022/08/16 09:39:02;;;;;;;11.03;6.67;;;;;;;27.55;48.37;99994.47;1734394;82;21108;-82
2022/08/16 09:41:29;;;;;;;10.15;6.37;;;;;;;27.56;48.33;99993.28;1790879;78;21086;-81
2022/08/16 09:43:56;;;;;;;8.33;6.17;;;;;;;27.58;48.28;100002.70;1777002;78;22039;-82
2022/08/16 09:46:28;;;;;;;8.85;6.40;;;;;;;27.57;48.28;99996.30;1783982;78;21036;-82
2022/08/16 09:48:54;;;;;;;9.35;6.65;;;;;;;27.58;48.24;100001.30;1780861;78;21059;-82
2022/08/16 09:51:22;;;;;;;9.03;6.72;;;;;;;27.58;48.21;99991.52;1793384;79;21067;-81
2022/08/16 09:53:55;;;;;;;8.28;6.47;;;;;;;27.59;48.16;99996.70;1793191;77;21035;-82
2022/08/16 09:56:30;;;;;;;8.80;6.15;;;;;;;27.60;48.11;99998.91;1786760;79;21981;-82
2022/08/16 09:58:57;;;;;;;10.43;6.67;;;;;;;27.61;48.08;99992.14;1808001;79;21028;-82
2022/08/16 10:01:23;;;;;;;10.35;6.90;;;;;;;27.61;48.04;99987.36;1785148;79;21057;-83
2022/08/16 10:03:51;;;;;;;8.88;6.53;;;;;;;27.61;48.03;99985.95;1768574;79;21586;-82
2022/08/16 10:06:20;;;;;;;7.62;6.60;;;;;;;27.62;48.01;99988.16;1780570;79;21051;-82
2022/08/16 10:08:47;;;;;;;8.60;7.47;;;;;;;27.62;47.99;99983.38;1804388;78;21132;-81
2022/08/16 10:13:59;;;;;;;10.75;6.45;;;;;;;27.62;48.00;99993.16;1827919;77;21119;-82
2022/08/16 10:16:26;;;;;;;10.00;7.10;;;;;;;27.64;47.94;99992.75;1801894;78;21317;-82
2022/08/16 10:18:52;;;;;;;10.63;7.85;;;;;;;27.64;47.90;99989.96;1803684;77;21009;-82
2022/08/16 10:21:19;;;;;;;6.85;6.05;;;;;;;27.65;47.86;99990.18;1792853;78;21173;-82
2022/08/16 10:23:45;;;;;;;9.10;7.35;;;;;;;27.65;47.82;99990.98;1793505;79;21635;-81
2022/08/16 10:26:11;;;;;;;9.23;6.80;;;;;;;27.64;47.83;99982.39;1799920;79;20950;-81
2022/08/16 10:28:38;;;;;;;12.50;7.35;;;;;;;27.65;47.80;99977.60;1791595;79;21041;-82
2022/08/16 10:31:05;;;;;;;8.30;6.50;;;;;;;27.65;47.73;99977.60;1792561;79;21015;-82
2022/08/16 10:33:32;;;;;;;8.88;6.60;;;;;;;27.65;47.66;99972.82;1810782;77;22048;-82
2022/08/16 10:35:59;;;;;;;8.55;6.85;;;;;;;27.65;47.63;99965.83;1838707;77;20997;-82
2022/08/16 10:38:26;;;;;;;8.13;7.00;;;;;;;27.65;47.60;99968.63;1807650;77;20998;-82
2022/08/16 10:40:53;;;;;;;8.13;7.22;;;;;;;27.66;47.53;99961.86;1799370;77;21289;-82
2022/08/16 10:43:19;;;;;;;9.05;6.70;;;;;;;27.68;47.53;99951.67;1799217;79;21043;-81
2022/08/16 10:45:47;;;;;;;8.88;6.95;;;;;;;27.69;47.51;99961.08;1796842;77;22570;-82
2022/08/16 10:48:13;;;;;;;8.03;7.05;;;;;;;27.68;47.42;99956.67;1803910;77;22093;-83
2022/08/16 10:50:40;;;;;;;10.08;6.78;;;;;;;27.69;47.42;99954.09;1775349;79;21044;-83
2022/08/16 10:53:06;;;;;;;10.05;6.83;;;;;;;27.69;47.39;99958.28;1780897;79;21123;-83
2022/08/16 10:55:35;;;;;;;8.35;6.28;;;;;;;27.73;47.38;99958.90;1772513;79;21040;-83
2022/08/16 10:58:08;;;;;;;7.45;6.08;;;;;;;27.72;47.41;99953.90;1787897;78;21508;-83
2022/08/16 11:00:38;;;;;;;8.68;6.67;;;;;;;27.73;47.43;99947.72;1800028;77;21060;-82
2022/08/16 11:03:07;;;;;;;11.30;7.42;;;;;;;27.72;47.37;99946.91;1812200;77;21059;-82
2022/08/16 11:05:35;;;;;;;8.50;6.50;;;;;;;27.74;47.26;99944.55;1807593;77;21008;-81
2022/08/16 11:08:01;;;;;;;9.65;7.15;;;;;;;27.75;47.22;99941.97;1818720;77;21097;-82
2022/08/16 11:10:31;;;;;;;8.53;6.60;;;;;;;27.77;47.22;99949.95;1784441;78;21174;-81
2022/08/16 11:12:58;;;;;;;8.10;6.80;;;;;;;27.77;47.11;99944.36;1790649;78;21534;-81
2022/08/16 11:15:24;;;;;;;8.13;5.92;;;;;;;27.77;47.11;99942.37;1814797;77;21423;-81
2022/08/16 11:17:51;;;;;;;8.00;6.67;;;;;;;27.78;47.06;99936.19;1819771;77;21068;-81
2022/08/16 11:20:18;;;;;;;10.23;6.87;;;;;;;27.79;46.89;99933.61;1836203;77;20995;-81
2022/08/16 11:22:46;;;;;;;8.78;6.58;;;;;;;27.80;46.77;99931.00;1826409;77;21008;-81
2022/08/16 11:25:14;;;;;;;8.60;6.75;;;;;;;27.80;46.70;99929.01;1814161;77;21100;-81
2022/08/16 11:27:40;;;;;;;8.38;7.05;;;;;;;27.81;46.62;99930.63;1819214;77;21008;-82
2022/08/16 11:30:08;;;;;;;9.75;6.37;;;;;;;27.83;46.55;99935.83;1803371;77;21060;-81
2022/08/16 11:32:34;;;;;;;7.95;6.33;;;;;;;27.81;46.55;99932.02;1829183;77;21044;-81